Decoded Metar for YBRK (ROCKHAMPTON in AUSTRALIA) (IATA:ROK) | Meteo·Mobile Aviation Weather
aviador You're here:

YBRK Decoded Metar

ROCKHAMPTON in AUSTRALIA
Report Time2018-10-23 10:00:00
UTC Time2018-10-23 10:37:38
Flight Rules vfr VFR
Wind030° at 06 kt
W.Decomp.*RWY 04: 5.7 kt HW 2 kt LCW
RWY 33: 3.8 kt HW 4.7 kt RCW
W.Rank030° ranks 11
Current wind is below 030° avg. (6.7)
Visibility9999 m
Phenomena:N/A
Clouds:N/A
Expected CloudBase > 3,200 ft AGL from Temp-Dew spread
CeilingNone
Temp25°C (ISA +10)
Dew Point17°C (61% RH)
QNH1015 hPa
Density Alt1,404 ft
Elevation46 ft
Report Wrong Elevation
Raw Report
YBRK 231000Z AUTO 03006KT 9999 // NCD 25/17 Q1015=

Extra information for YBRK:More info

Metar Taf Metar & Taf Last 4 Metars F.Rules Stats Wind Profile Meteogram Temp Stats Airport Information Weather charts Add Link Nearby VenuesMetar ALERT Operation Metar Decoded Social comments